EDT,Max TemperatureF,Mean TemperatureF,Min TemperatureF,Max Dew PointF,MeanDew PointF,Min DewpointF,Max Humidity, Mean Humidity, Min Humidity, Max Sea Level PressureIn, Mean Sea Level PressureIn, Min Sea Level PressureIn, Max VisibilityMiles, Mean VisibilityMiles, Min VisibilityMiles, Max Wind SpeedMPH, Mean Wind SpeedMPH, Max Gust SpeedMPH,PrecipitationIn, CloudCover, Events, WindDirDegrees
2013-4-1,64,50,35,46,35,25,100,79,37,30.00,29.85,29.76,10,5,0,24,3,31,0.00,5,,328
2013-4-2,51,42,33,25,16,10,60,40,19,30.19,30.09,30.01,10,10,10,15,8,25,0.00,0,,323
2013-4-3,53,37,21,27,17,10,100,48,18,30.40,30.26,30.19,10,10,10,20,6,28,0.00,0,,323
2013-4-4,48,34,21,37,21,10,100,60,22,30.43,30.31,30.09,10,10,7,12,3,21,0.00,2,,173
2013-4-5,66,52,37,39,31,21,100,64,22,30.08,29.97,29.83,10,9,6,17,6,29,0.00,4,,349
2013-4-6,57,46,35,30,23,18,65,43,23,30.33,30.20,30.06,10,10,10,13,10,18,0.00,0,,349
2013-4-7,71,53,35,41,36,30,93,53,29,30.28,30.13,29.98,10,10,10,18,9,28,0.00,0,,177
2013-4-8,82,63,44,48,45,43,93,49,25,30.08,30.02,29.94,10,10,10,13,5,21,0.00,1,,190
2013-4-9,86,70,53,54,52,48,94,55,31,30.09,29.99,29.94,10,10,10,12,6,,0.00,1,,193
2013-4-10,91,75,59,57,53,52,82,49,28,29.98,29.88,29.79,10,10,10,10,5,18,0.00,0,,193
2013-4-11,87,71,55,59,55,52,100,64,33,29.88,29.82,29.73,10,10,10,21,5,26,0.00,0,,140
2013-4-12,78,66,53,66,56,52,100,89,51,29.79,29.70,29.56,10,8,1,17,7,22,0.01,6,Rain-Thunderstorm,79
2013-4-13,69,55,41,54,41,36,100,60,28,29.96,29.88,29.77,10,10,6,18,6,26,0.00,1,,231
2013-4-14,68,54,39,46,40,36,100,65,32,30.14,30.06,29.97,10,10,9,9,2,,0.00,0,,90
2013-4-15,66,60,55,52,49,43,82,67,52,30.33,30.22,30.13,10,10,10,14,4,17,0.00,7,,125
2013-4-16,77,66,55,59,56,52,94,72,50,30.31,30.23,30.13,10,10,10,16,7,21,0.00,5,,179
2013-4-17,78,68,57,63,59,55,100,79,54,30.23,30.17,30.12,10,9,0,16,5,20,0.00,2,Fog,74
2013-4-18,78,69,60,64,60,55,100,78,47,30.22,30.13,30.00,10,10,3,20,7,25,0.00,6,,144
2013-4-19,78,66,51,66,61,52,100,84,60,30.00,29.81,29.61,10,10,5,22,11,29,0.00,6,Rain-Thunderstorm,176
2013-4-20,62,54,46,48,31,27,88,44,27,30.35,30.07,29.79,10,10,10,20,11,28,0.00,1,,324
2013-4-21,55,45,35,34,26,21,81,46,26,30.60,30.52,30.36,10,10,10,14,6,18,0.00,0,,31
2013-4-22,57,44,32,37,36,32,100,68,41,30.57,30.49,30.40,10,10,6,15,3,20,0.00,3,,71
2013-4-23,60,52,42,46,42,37,100,72,55,30.40,30.24,30.13,10,10,8,9,5,,0.00,4,,30
2013-4-24,78,58,39,55,48,39,100,75,36,30.13,29.99,29.80,10,9,3,23,4,34,0.00,1,,214
2013-4-25,64,54,44,52,34,27,82,48,24,30.33,30.22,30.01,10,10,10,21,11,36,0.00,2,,338
2013-4-26,66,52,39,43,37,30,100,56,28,30.47,30.39,30.32,10,10,8,12,2,16,0.00,0,,348
2013-4-27,71,55,39,46,41,34,100,60,29,30.42,30.35,30.28,10,10,9,10,2,17,0.00,0,,142
2013-4-28,62,52,41,54,46,39,100,81,42,30.30,30.23,30.14,10,10,8,12,2,18,0.00,4,,150
2013-4-29,60,56,53,59,55,48,100,95,72,30.16,30.09,30.04,10,9,2,15,6,18,0.00,8,,115
2013-4-30,60,58,55,57,56,52,100,95,88,30.29,30.19,30.09,10,8,2,9,4,16,0.00,8,,46